sensor_id;sensor_type;location;lat;lon;timestamp;temperature;humidity
3868;DHT22;1949;48.152;11.528;2022-09-28T00:01:58;15.20;50.00
3868;DHT22;1949;48.152;11.528;2022-09-28T00:04:24;15.20;50.10
3868;DHT22;1949;48.152;11.528;2022-09-28T00:06:51;15.20;50.00
3868;DHT22;1949;48.152;11.528;2022-09-28T00:09:18;15.20;50.00
3868;DHT22;1949;48.152;11.528;2022-09-28T00:11:45;15.10;50.10
3868;DHT22;1949;48.152;11.528;2022-09-28T00:14:11;15.20;50.20
3868;DHT22;1949;48.152;11.528;2022-09-28T00:16:41;15.20;50.00
3868;DHT22;1949;48.152;11.528;2022-09-28T00:19:09;15.20;50.00
3868;DHT22;1949;48.152;11.528;2022-09-28T00:21:38;15.10;50.00
3868;DHT22;1949;48.152;11.528;2022-09-28T00:24:06;15.10;50.60
3868;DHT22;1949;48.152;11.528;2022-09-28T00:26:52;15.10;49.90
3868;DHT22;1949;48.152;11.528;2022-09-28T00:31:50;15.00;50.00
3868;DHT22;1949;48.152;11.528;2022-09-28T00:34:19;15.00;50.10
3868;DHT22;1949;48.152;11.528;2022-09-28T00:36:45;15.00;50.30
3868;DHT22;1949;48.152;11.528;2022-09-28T00:39:13;15.00;50.20
3868;DHT22;1949;48.152;11.528;2022-09-28T00:41:39;15.10;50.30
3868;DHT22;1949;48.152;11.528;2022-09-28T00:47:06;15.10;50.00
3868;DHT22;1949;48.152;11.528;2022-09-28T00:49:38;15.00;50.00
3868;DHT22;1949;48.152;11.528;2022-09-28T00:52:06;15.00;50.00
3868;DHT22;1949;48.152;11.528;2022-09-28T00:54:33;15.00;50.00
3868;DHT22;1949;48.152;11.528;2022-09-28T00:57:00;15.00;49.80
3868;DHT22;1949;48.152;11.528;2022-09-28T00:59:29;14.90;49.70
3868;DHT22;1949;48.152;11.528;2022-09-28T01:01:57;14.90;49.80
3868;DHT22;1949;48.152;11.528;2022-09-28T01:04:24;14.80;49.90
3868;DHT22;1949;48.152;11.528;2022-09-28T01:06:55;14.80;49.90
3868;DHT22;1949;48.152;11.528;2022-09-28T01:09:22;14.80;50.00
3868;DHT22;1949;48.152;11.528;2022-09-28T01:11:49;14.80;49.90
3868;DHT22;1949;48.152;11.528;2022-09-28T01:14:16;14.70;49.70
3868;DHT22;1949;48.152;11.528;2022-09-28T01:17:03;14.60;49.70
3868;DHT22;1949;48.152;11.528;2022-09-28T01:28:08;14.40;49.70
3868;DHT22;1949;48.152;11.528;2022-09-28T01:30:44;14.40;49.90
3868;DHT22;1949;48.152;11.528;2022-09-28T01:33:21;14.40;50.00
3868;DHT22;1949;48.152;11.528;2022-09-28T01:36:01;14.30;50.10
3868;DHT22;1949;48.152;11.528;2022-09-28T01:38:54;14.30;50.10
3868;DHT22;1949;48.152;11.528;2022-09-28T01:41:22;14.40;50.30
3868;DHT22;1949;48.152;11.528;2022-09-28T01:43:53;14.40;50.10
3868;DHT22;1949;48.152;11.528;2022-09-28T01:46:31;14.40;50.20
3868;DHT22;1949;48.152;11.528;2022-09-28T01:49:04;14.40;50.10
3868;DHT22;1949;48.152;11.528;2022-09-28T01:51:48;14.50;50.20
3868;DHT22;1949;48.152;11.528;2022-09-28T01:54:23;14.50;50.10
3868;DHT22;1949;48.152;11.528;2022-09-28T01:57:17;14.50;50.00
3868;DHT22;1949;48.152;11.528;2022-09-28T01:59:52;14.50;49.90
3868;DHT22;1949;48.152;11.528;2022-09-28T02:02:24;14.50;50.10
3868;DHT22;1949;48.152;11.528;2022-09-28T02:07:42;14.50;49.80
3868;DHT22;1949;48.152;11.528;2022-09-28T02:10:21;14.50;49.80
3868;DHT22;1949;48.152;11.528;2022-09-28T02:13:01;14.50;49.90
3868;DHT22;1949;48.152;11.528;2022-09-28T02:18:13;14.50;49.90
3868;DHT22;1949;48.152;11.528;2022-09-28T02:20:41;14.50;50.50
3868;DHT22;1949;48.152;11.528;2022-09-28T02:23:12;14.60;50.00
3868;DHT22;1949;48.152;11.528;2022-09-28T02:25:54;14.60;49.90
3868;DHT22;1949;48.152;11.528;2022-09-28T02:28:25;14.60;49.80
3868;DHT22;1949;48.152;11.528;2022-09-28T02:30:50;14.60;50.00
3868;DHT22;1949;48.152;11.528;2022-09-28T02:33:28;14.60;50.00
3868;DHT22;1949;48.152;11.528;2022-09-28T02:35:56;14.70;49.90
3868;DHT22;1949;48.152;11.528;2022-09-28T02:38:26;14.60;49.80
3868;DHT22;1949;48.152;11.528;2022-09-28T02:44:25;14.60;49.70
3868;DHT22;1949;48.152;11.528;2022-09-28T02:58:11;14.50;49.80
3868;DHT22;1949;48.152;11.528;2022-09-28T03:06:51;14.50;49.70
3868;DHT22;1949;48.152;11.528;2022-09-28T03:09:30;14.50;49.80
3868;DHT22;1949;48.152;11.528;2022-09-28T03:12:07;14.50;49.60
3868;DHT22;1949;48.152;11.528;2022-09-28T03:14:33;14.60;49.80
3868;DHT22;1949;48.152;11.528;2022-09-28T03:16:59;14.60;49.70
3868;DHT22;1949;48.152;11.528;2022-09-28T03:19:29;14.60;49.60
3868;DHT22;1949;48.152;11.528;2022-09-28T03:21:56;14.60;49.60
3868;DHT22;1949;48.152;11.528;2022-09-28T03:24:21;14.70;49.70
3868;DHT22;1949;48.152;11.528;2022-09-28T03:26:47;14.70;49.70
3868;DHT22;1949;48.152;11.528;2022-09-28T03:29:14;14.80;49.90
3868;DHT22;1949;48.152;11.528;2022-09-28T03:31:42;14.80;49.70
3868;DHT22;1949;48.152;11.528;2022-09-28T03:34:09;14.90;49.70
3868;DHT22;1949;48.152;11.528;2022-09-28T03:36:35;15.00;49.70
3868;DHT22;1949;48.152;11.528;2022-09-28T03:39:01;15.00;49.60
3868;DHT22;1949;48.152;11.528;2022-09-28T03:41:26;15.00;49.60
3868;DHT22;1949;48.152;11.528;2022-09-28T03:43:52;15.10;49.50
3868;DHT22;1949;48.152;11.528;2022-09-28T03:46:18;15.10;49.40
3868;DHT22;1949;48.152;11.528;2022-09-28T03:48:44;15.20;49.40
3868;DHT22;1949;48.152;11.528;2022-09-28T03:51:11;15.20;49.40
3868;DHT22;1949;48.152;11.528;2022-09-28T03:53:37;15.20;49.40
3868;DHT22;1949;48.152;11.528;2022-09-28T03:56:05;15.20;49.40
3868;DHT22;1949;48.152;11.528;2022-09-28T03:58:32;15.30;49.50
3868;DHT22;1949;48.152;11.528;2022-09-28T04:01:03;15.30;49.40
3868;DHT22;1949;48.152;11.528;2022-09-28T04:03:29;15.20;49.20
3868;DHT22;1949;48.152;11.528;2022-09-28T04:05:55;15.30;49.30
3868;DHT22;1949;48.152;11.528;2022-09-28T04:08:21;15.30;49.20
3868;DHT22;1949;48.152;11.528;2022-09-28T04:10:51;15.30;49.20
3868;DHT22;1949;48.152;11.528;2022-09-28T04:13:20;15.30;49.10
3868;DHT22;1949;48.152;11.528;2022-09-28T04:15:55;15.30;49.10
3868;DHT22;1949;48.152;11.528;2022-09-28T04:18:22;15.30;49.20
3868;DHT22;1949;48.152;11.528;2022-09-28T04:21:04;15.30;49.20
3868;DHT22;1949;48.152;11.528;2022-09-28T04:23:37;15.30;49.20
3868;DHT22;1949;48.152;11.528;2022-09-28T04:26:06;15.30;49.20
3868;DHT22;1949;48.152;11.528;2022-09-28T04:28:32;15.30;49.20
3868;DHT22;1949;48.152;11.528;2022-09-28T04:31:21;15.30;49.20
3868;DHT22;1949;48.152;11.528;2022-09-28T04:33:47;15.20;49.00
3868;DHT22;1949;48.152;11.528;2022-09-28T04:36:15;15.20;48.90
3868;DHT22;1949;48.152;11.528;2022-09-28T04:38:42;15.20;49.10
3868;DHT22;1949;48.152;11.528;2022-09-28T04:41:08;15.20;49.20
3868;DHT22;1949;48.152;11.528;2022-09-28T04:43:34;15.20;49.20
3868;DHT22;1949;48.152;11.528;2022-09-28T04:46:02;15.20;49.10
3868;DHT22;1949;48.152;11.528;2022-09-28T04:48:30;15.20;49.00
3868;DHT22;1949;48.152;11.528;2022-09-28T04:50:57;15.10;49.00
3868;DHT22;1949;48.152;11.528;2022-09-28T04:53:26;15.10;49.10
3868;DHT22;1949;48.152;11.528;2022-09-28T04:56:10;15.10;49.30
3868;DHT22;1949;48.152;11.528;2022-09-28T04:58:37;15.20;49.40
3868;DHT22;1949;48.152;11.528;2022-09-28T05:01:06;15.20;49.40
3868;DHT22;1949;48.152;11.528;2022-09-28T05:03:33;15.20;49.40
3868;DHT22;1949;48.152;11.528;2022-09-28T05:05:59;15.20;49.40
3868;DHT22;1949;48.152;11.528;2022-09-28T05:08:26;15.30;49.20
3868;DHT22;1949;48.152;11.528;2022-09-28T05:10:59;15.30;49.20
3868;DHT22;1949;48.152;11.528;2022-09-28T05:13:31;15.30;49.10
3868;DHT22;1949;48.152;11.528;2022-09-28T05:15:59;15.30;49.20
3868;DHT22;1949;48.152;11.528;2022-09-28T05:18:24;15.20;49.20
3868;DHT22;1949;48.152;11.528;2022-09-28T05:20:51;15.20;49.10
3868;DHT22;1949;48.152;11.528;2022-09-28T05:23:17;15.20;49.10
3868;DHT22;1949;48.152;11.528;2022-09-28T05:25:43;15.20;49.20
3868;DHT22;1949;48.152;11.528;2022-09-28T05:28:11;15.20;49.30
3868;DHT22;1949;48.152;11.528;2022-09-28T05:30:39;15.10;49.20
3868;DHT22;1949;48.152;11.528;2022-09-28T05:33:04;15.10;49.30
3868;DHT22;1949;48.152;11.528;2022-09-28T05:35:30;15.10;49.10
3868;DHT22;1949;48.152;11.528;2022-09-28T05:38:01;15.10;49.10
3868;DHT22;1949;48.152;11.528;2022-09-28T05:40:32;15.10;49.40
3868;DHT22;1949;48.152;11.528;2022-09-28T05:43:01;15.10;49.50
3868;DHT22;1949;48.152;11.528;2022-09-28T05:45:28;15.10;49.30
3868;DHT22;1949;48.152;11.528;2022-09-28T05:47:54;15.00;49.20
3868;DHT22;1949;48.152;11.528;2022-09-28T05:50:20;15.00;49.30
3868;DHT22;1949;48.152;11.528;2022-09-28T05:52:45;15.00;49.30
3868;DHT22;1949;48.152;11.528;2022-09-28T05:55:11;15.00;49.40
3868;DHT22;1949;48.152;11.528;2022-09-28T05:57:37;15.00;49.40
3868;DHT22;1949;48.152;11.528;2022-09-28T06:00:06;14.90;49.30
3868;DHT22;1949;48.152;11.528;2022-09-28T06:02:34;14.90;49.40
3868;DHT22;1949;48.152;11.528;2022-09-28T06:05:05;14.90;49.50
3868;DHT22;1949;48.152;11.528;2022-09-28T06:07:31;14.80;49.40
3868;DHT22;1949;48.152;11.528;2022-09-28T06:10:03;14.70;49.30
3868;DHT22;1949;48.152;11.528;2022-09-28T06:12:32;14.70;49.50
3868;DHT22;1949;48.152;11.528;2022-09-28T06:15:04;14.70;49.70
3868;DHT22;1949;48.152;11.528;2022-09-28T06:17:30;14.70;49.90
3868;DHT22;1949;48.152;11.528;2022-09-28T06:19:58;14.70;49.90
3868;DHT22;1949;48.152;11.528;2022-09-28T06:22:27;14.70;49.80
3868;DHT22;1949;48.152;11.528;2022-09-28T06:24:54;14.70;49.90
3868;DHT22;1949;48.152;11.528;2022-09-28T06:27:20;14.70;49.90
3868;DHT22;1949;48.152;11.528;2022-09-28T06:29:46;14.70;49.90
3868;DHT22;1949;48.152;11.528;2022-09-28T06:32:14;14.80;49.90
3868;DHT22;1949;48.152;11.528;2022-09-28T06:34:39;14.70;49.70
3868;DHT22;1949;48.152;11.528;2022-09-28T06:37:06;14.70;49.80
3868;DHT22;1949;48.152;11.528;2022-09-28T06:39:32;14.70;49.90
3868;DHT22;1949;48.152;11.528;2022-09-28T06:42:02;14.70;50.00
3868;DHT22;1949;48.152;11.528;2022-09-28T06:44:29;14.70;49.90
3868;DHT22;1949;48.152;11.528;2022-09-28T06:46:55;14.70;49.90
3868;DHT22;1949;48.152;11.528;2022-09-28T06:49:22;14.70;49.90
3868;DHT22;1949;48.152;11.528;2022-09-28T06:51:49;14.70;50.00
3868;DHT22;1949;48.152;11.528;2022-09-28T06:54:15;14.70;49.90
3868;DHT22;1949;48.152;11.528;2022-09-28T06:56:41;14.70;50.00
3868;DHT22;1949;48.152;11.528;2022-09-28T06:59:09;14.70;50.00
3868;DHT22;1949;48.152;11.528;2022-09-28T07:01:35;14.70;50.00
3868;DHT22;1949;48.152;11.528;2022-09-28T07:04:01;14.70;49.80
3868;DHT22;1949;48.152;11.528;2022-09-28T07:06:26;14.60;49.70
3868;DHT22;1949;48.152;11.528;2022-09-28T07:08:53;14.60;49.90
3868;DHT22;1949;48.152;11.528;2022-09-28T07:11:20;14.50;49.80
3868;DHT22;1949;48.152;11.528;2022-09-28T07:13:46;14.50;50.00
3868;DHT22;1949;48.152;11.528;2022-09-28T07:16:16;14.50;50.10
3868;DHT22;1949;48.152;11.528;2022-09-28T07:18:44;14.50;50.20
3868;DHT22;1949;48.152;11.528;2022-09-28T07:21:11;14.50;50.10
3868;DHT22;1949;48.152;11.528;2022-09-28T07:23:37;14.50;50.30
3868;DHT22;1949;48.152;11.528;2022-09-28T07:26:04;14.50;50.40
3868;DHT22;1949;48.152;11.528;2022-09-28T07:28:32;14.60;50.50
3868;DHT22;1949;48.152;11.528;2022-09-28T07:31:01;14.60;50.30
3868;DHT22;1949;48.152;11.528;2022-09-28T07:33:27;14.60;50.10
3868;DHT22;1949;48.152;11.528;2022-09-28T07:35:57;14.60;50.30
3868;DHT22;1949;48.152;11.528;2022-09-28T07:38:23;14.60;50.10
3868;DHT22;1949;48.152;11.528;2022-09-28T07:40:50;14.60;50.30
3868;DHT22;1949;48.152;11.528;2022-09-28T07:43:35;14.60;50.40
3868;DHT22;1949;48.152;11.528;2022-09-28T07:46:02;14.60;50.40
3868;DHT22;1949;48.152;11.528;2022-09-28T07:48:27;14.50;50.40
3868;DHT22;1949;48.152;11.528;2022-09-28T07:50:55;14.50;50.30
3868;DHT22;1949;48.152;11.528;2022-09-28T07:53:23;14.50;50.30
3868;DHT22;1949;48.152;11.528;2022-09-28T07:55:54;14.50;50.40
3868;DHT22;1949;48.152;11.528;2022-09-28T07:58:20;14.50;50.50
3868;DHT22;1949;48.152;11.528;2022-09-28T08:00:47;14.50;50.70
3868;DHT22;1949;48.152;11.528;2022-09-28T08:03:17;14.50;50.70
3868;DHT22;1949;48.152;11.528;2022-09-28T08:05:43;14.50;50.80
3868;DHT22;1949;48.152;11.528;2022-09-28T08:08:10;14.50;51.10
3868;DHT22;1949;48.152;11.528;2022-09-28T08:10:36;14.50;50.60
3868;DHT22;1949;48.152;11.528;2022-09-28T08:13:03;14.50;50.70
3868;DHT22;1949;48.152;11.528;2022-09-28T08:15:31;14.40;50.60
3868;DHT22;1949;48.152;11.528;2022-09-28T08:18:04;14.40;50.60
3868;DHT22;1949;48.152;11.528;2022-09-28T08:20:32;14.40;50.90
3868;DHT22;1949;48.152;11.528;2022-09-28T08:23:17;14.40;50.90
3868;DHT22;1949;48.152;11.528;2022-09-28T08:25:47;14.40;50.90
3868;DHT22;1949;48.152;11.528;2022-09-28T08:28:14;14.40;50.90
3868;DHT22;1949;48.152;11.528;2022-09-28T08:30:45;14.40;51.00
3868;DHT22;1949;48.152;11.528;2022-09-28T08:33:12;14.40;51.10
3868;DHT22;1949;48.152;11.528;2022-09-28T08:35:40;14.40;51.20
3868;DHT22;1949;48.152;11.528;2022-09-28T08:38:07;14.40;51.10
3868;DHT22;1949;48.152;11.528;2022-09-28T08:40:43;14.40;51.00
3868;DHT22;1949;48.152;11.528;2022-09-28T08:46:02;14.40;51.20
3868;DHT22;1949;48.152;11.528;2022-09-28T08:48:32;14.30;51.20
3868;DHT22;1949;48.152;11.528;2022-09-28T08:51:14;14.40;51.40
3868;DHT22;1949;48.152;11.528;2022-09-28T08:56:36;14.40;51.50
3868;DHT22;1949;48.152;11.528;2022-09-28T08:59:10;14.40;51.50
3868;DHT22;1949;48.152;11.528;2022-09-28T09:02:02;14.50;51.60
3868;DHT22;1949;48.152;11.528;2022-09-28T09:04:29;14.50;51.70
3868;DHT22;1949;48.152;11.528;2022-09-28T09:10:06;14.60;51.90
3868;DHT22;1949;48.152;11.528;2022-09-28T09:12:45;14.70;51.90
3868;DHT22;1949;48.152;11.528;2022-09-28T09:15:40;14.80;51.70
3868;DHT22;1949;48.152;11.528;2022-09-28T09:21:41;14.80;51.40
3868;DHT22;1949;48.152;11.528;2022-09-28T09:26:48;14.90;51.50
3868;DHT22;1949;48.152;11.528;2022-09-28T09:47:28;15.10;51.30
3868;DHT22;1949;48.152;11.528;2022-09-28T09:49:50;15.10;51.30
3868;DHT22;1949;48.152;11.528;2022-09-28T09:52:25;15.20;51.50
3868;DHT22;1949;48.152;11.528;2022-09-28T09:55:45;15.20;51.30
3868;DHT22;1949;48.152;11.528;2022-09-28T09:58:06;15.20;51.10
3868;DHT22;1949;48.152;11.528;2022-09-28T10:00:37;15.20;51.10
3868;DHT22;1949;48.152;11.528;2022-09-28T10:03:04;15.20;51.20
3868;DHT22;1949;48.152;11.528;2022-09-28T10:05:31;15.20;51.30
3868;DHT22;1949;48.152;11.528;2022-09-28T10:08:14;15.30;51.30
3868;DHT22;1949;48.152;11.528;2022-09-28T10:11:07;15.30;51.30
3868;DHT22;1949;48.152;11.528;2022-09-28T10:13:37;15.30;51.20
3868;DHT22;1949;48.152;11.528;2022-09-28T10:16:06;15.20;51.10
3868;DHT22;1949;48.152;11.528;2022-09-28T10:18:33;15.20;51.20
3868;DHT22;1949;48.152;11.528;2022-09-28T10:21:00;15.20;51.20
3868;DHT22;1949;48.152;11.528;2022-09-28T10:23:31;15.20;51.30
3868;DHT22;1949;48.152;11.528;2022-09-28T10:26:27;15.30;51.30
3868;DHT22;1949;48.152;11.528;2022-09-28T10:28:58;15.30;51.30
3868;DHT22;1949;48.152;11.528;2022-09-28T10:34:02;15.30;51.10
3868;DHT22;1949;48.152;11.528;2022-09-28T10:36:41;15.30;51.10
3868;DHT22;1949;48.152;11.528;2022-09-28T10:42:07;15.30;50.90
3868;DHT22;1949;48.152;11.528;2022-09-28T10:44:58;15.20;50.90
3868;DHT22;1949;48.152;11.528;2022-09-28T10:47:27;15.10;50.90
3868;DHT22;1949;48.152;11.528;2022-09-28T10:49:55;15.10;51.00
3868;DHT22;1949;48.152;11.528;2022-09-28T10:52:40;15.10;51.20
3868;DHT22;1949;48.152;11.528;2022-09-28T10:55:29;15.10;51.30
3868;DHT22;1949;48.152;11.528;2022-09-28T10:57:59;15.00;51.30
3868;DHT22;1949;48.152;11.528;2022-09-28T11:00:43;15.00;51.30
3868;DHT22;1949;48.152;11.528;2022-09-28T11:06:10;15.00;51.50
3868;DHT22;1949;48.152;11.528;2022-09-28T11:08:38;14.90;51.30
3868;DHT22;1949;48.152;11.528;2022-09-28T11:11:12;15.00;51.60
3868;DHT22;1949;48.152;11.528;2022-09-28T11:13:41;14.90;51.60
3868;DHT22;1949;48.152;11.528;2022-09-28T11:16:31;14.90;51.60
3868;DHT22;1949;48.152;11.528;2022-09-28T11:19:05;15.00;51.50
3868;DHT22;1949;48.152;11.528;2022-09-28T11:21:50;15.00;51.70
3868;DHT22;1949;48.152;11.528;2022-09-28T11:24:21;15.00;51.50
3868;DHT22;1949;48.152;11.528;2022-09-28T11:26:55;15.00;51.50
3868;DHT22;1949;48.152;11.528;2022-09-28T11:29:39;15.00;51.50
3868;DHT22;1949;48.152;11.528;2022-09-28T11:32:11;15.00;51.50
3868;DHT22;1949;48.152;11.528;2022-09-28T11:34:42;15.00;51.70
3868;DHT22;1949;48.152;11.528;2022-09-28T11:40:46;15.10;51.80
3868;DHT22;1949;48.152;11.528;2022-09-28T11:43:45;15.10;51.50
3868;DHT22;1949;48.152;11.528;2022-09-28T11:49:24;15.10;51.70
3868;DHT22;1949;48.152;11.528;2022-09-28T11:51:52;15.10;51.70
3868;DHT22;1949;48.152;11.528;2022-09-28T11:54:29;15.10;51.80
3868;DHT22;1949;48.152;11.528;2022-09-28T11:57:00;15.10;51.70
3868;DHT22;1949;48.152;11.528;2022-09-28T11:59:30;15.10;51.80
3868;DHT22;1949;48.152;11.528;2022-09-28T12:02:10;15.10;51.80
3868;DHT22;1949;48.152;11.528;2022-09-28T12:05:24;15.20;51.90
3868;DHT22;1949;48.152;11.528;2022-09-28T12:07:50;15.20;51.90
3868;DHT22;1949;48.152;11.528;2022-09-28T12:13:27;15.30;51.90
3868;DHT22;1949;48.152;11.528;2022-09-28T12:16:12;15.40;51.90
3868;DHT22;1949;48.152;11.528;2022-09-28T12:18:58;15.40;51.70
3868;DHT22;1949;48.152;11.528;2022-09-28T12:24:45;15.50;51.80
3868;DHT22;1949;48.152;11.528;2022-09-28T12:30:03;15.60;51.70
3868;DHT22;1949;48.152;11.528;2022-09-28T12:35:13;15.60;51.60
3868;DHT22;1949;48.152;11.528;2022-09-28T12:57:29;15.60;51.60
3868;DHT22;1949;48.152;11.528;2022-09-28T13:00:20;15.70;51.70
3868;DHT22;1949;48.152;11.528;2022-09-28T13:11:00;15.70;51.90
3868;DHT22;1949;48.152;11.528;2022-09-28T13:19:11;15.60;51.40
3868;DHT22;1949;48.152;11.528;2022-09-28T13:22:19;15.60;51.40
3868;DHT22;1949;48.152;11.528;2022-09-28T13:24:47;15.60;51.40
3868;DHT22;1949;48.152;11.528;2022-09-28T13:27:22;15.60;51.40
3868;DHT22;1949;48.152;11.528;2022-09-28T13:29:52;15.60;51.40
3868;DHT22;1949;48.152;11.528;2022-09-28T13:32:18;15.60;51.40
3868;DHT22;1949;48.152;11.528;2022-09-28T13:34:47;15.60;51.20
3868;DHT22;1949;48.152;11.528;2022-09-28T13:39:50;15.60;51.20
3868;DHT22;1949;48.152;11.528;2022-09-28T13:48:02;15.60;51.00
3868;DHT22;1949;48.152;11.528;2022-09-28T13:59:24;15.50;51.00
3868;DHT22;1949;48.152;11.528;2022-09-28T14:02:00;15.50;51.00
3868;DHT22;1949;48.152;11.528;2022-09-28T14:10:17;15.50;51.00
3868;DHT22;1949;48.152;11.528;2022-09-28T14:12:50;15.60;51.00
3868;DHT22;1949;48.152;11.528;2022-09-28T14:18:30;15.60;51.00
3868;DHT22;1949;48.152;11.528;2022-09-28T14:29:27;15.50;50.90
3868;DHT22;1949;48.152;11.528;2022-09-28T14:32:43;15.50;50.90
3868;DHT22;1949;48.152;11.528;2022-09-28T14:34:46;15.50;50.80
3868;DHT22;1949;48.152;11.528;2022-09-28T14:37:35;15.50;50.90
3868;DHT22;1949;48.152;11.528;2022-09-28T14:40:30;15.60;50.90
3868;DHT22;1949;48.152;11.528;2022-09-28T14:48:48;15.50;50.70
3868;DHT22;1949;48.152;11.528;2022-09-28T14:54:15;15.50;50.70
3868;DHT22;1949;48.152;11.528;2022-09-28T14:59:27;15.50;50.60
3868;DHT22;1949;48.152;11.528;2022-09-28T15:01:56;15.50;50.70
3868;DHT22;1949;48.152;11.528;2022-09-28T15:04:27;15.50;50.70
3868;DHT22;1949;48.152;11.528;2022-09-28T15:06:54;15.50;50.80
3868;DHT22;1949;48.152;11.528;2022-09-28T15:12:30;15.50;50.70
3868;DHT22;1949;48.152;11.528;2022-09-28T15:15:23;15.40;50.60
3868;DHT22;1949;48.152;11.528;2022-09-28T15:20:46;15.40;50.80
3868;DHT22;1949;48.152;11.528;2022-09-28T15:26:01;15.40;50.60
3868;DHT22;1949;48.152;11.528;2022-09-28T15:28:28;15.40;50.60
3868;DHT22;1949;48.152;11.528;2022-09-28T15:31:03;15.40;50.80
3868;DHT22;1949;48.152;11.528;2022-09-28T15:33:32;15.30;50.70
3868;DHT22;1949;48.152;11.528;2022-09-28T15:36:20;15.40;50.90
3868;DHT22;1949;48.152;11.528;2022-09-28T15:41:19;15.30;50.70
3868;DHT22;1949;48.152;11.528;2022-09-28T15:44:13;15.30;50.60
3868;DHT22;1949;48.152;11.528;2022-09-28T15:46:45;15.30;50.60
3868;DHT22;1949;48.152;11.528;2022-09-28T15:49:28;15.20;50.70
3868;DHT22;1949;48.152;11.528;2022-09-28T15:51:57;15.30;50.80
3868;DHT22;1949;48.152;11.528;2022-09-28T15:54:41;15.20;50.60
3868;DHT22;1949;48.152;11.528;2022-09-28T15:57:37;15.20;50.70
3868;DHT22;1949;48.152;11.528;2022-09-28T16:00:21;15.20;50.80
3868;DHT22;1949;48.152;11.528;2022-09-28T16:08:04;15.20;50.90
3868;DHT22;1949;48.152;11.528;2022-09-28T16:10:33;15.20;50.90
3868;DHT22;1949;48.152;11.528;2022-09-28T16:13:19;15.30;50.90
3868;DHT22;1949;48.152;11.528;2022-09-28T16:15:58;15.20;50.70
3868;DHT22;1949;48.152;11.528;2022-09-28T16:18:26;15.20;50.90
3868;DHT22;1949;48.152;11.528;2022-09-28T16:20:54;15.10;50.80
3868;DHT22;1949;48.152;11.528;2022-09-28T16:23:32;15.10;50.90
3868;DHT22;1949;48.152;11.528;2022-09-28T16:36:43;15.10;51.30
3868;DHT22;1949;48.152;11.528;2022-09-28T16:39:12;15.10;51.20
3868;DHT22;1949;48.152;11.528;2022-09-28T16:41:42;15.20;51.30
3868;DHT22;1949;48.152;11.528;2022-09-28T16:44:16;15.20;51.20
3868;DHT22;1949;48.152;11.528;2022-09-28T16:46:44;15.20;51.20
3868;DHT22;1949;48.152;11.528;2022-09-28T16:49:13;15.20;51.10
3868;DHT22;1949;48.152;11.528;2022-09-28T16:51:44;15.20;51.20
3868;DHT22;1949;48.152;11.528;2022-09-28T16:54:21;15.10;51.10
3868;DHT22;1949;48.152;11.528;2022-09-28T16:57:08;15.10;51.30
3868;DHT22;1949;48.152;11.528;2022-09-28T16:59:36;15.20;51.30
3868;DHT22;1949;48.152;11.528;2022-09-28T17:02:19;15.20;51.30
3868;DHT22;1949;48.152;11.528;2022-09-28T17:04:47;15.20;51.20
3868;DHT22;1949;48.152;11.528;2022-09-28T17:07:13;15.20;51.20
3868;DHT22;1949;48.152;11.528;2022-09-28T17:09:39;15.10;51.10
3868;DHT22;1949;48.152;11.528;2022-09-28T17:12:15;15.10;51.20
3868;DHT22;1949;48.152;11.528;2022-09-28T17:14:42;15.10;51.20
3868;DHT22;1949;48.152;11.528;2022-09-28T17:17:12;15.20;51.30
3868;DHT22;1949;48.152;11.528;2022-09-28T17:19:40;15.20;51.20
3868;DHT22;1949;48.152;11.528;2022-09-28T17:22:08;15.20;51.10
3868;DHT22;1949;48.152;11.528;2022-09-28T17:24:36;15.20;51.10
3868;DHT22;1949;48.152;11.528;2022-09-28T17:27:02;15.20;51.10
3868;DHT22;1949;48.152;11.528;2022-09-28T17:29:29;15.10;51.10
3868;DHT22;1949;48.152;11.528;2022-09-28T17:31:56;15.10;51.20
3868;DHT22;1949;48.152;11.528;2022-09-28T17:34:22;15.10;51.10
3868;DHT22;1949;48.152;11.528;2022-09-28T17:36:48;15.10;51.10
3868;DHT22;1949;48.152;11.528;2022-09-28T17:39:18;15.10;51.10
3868;DHT22;1949;48.152;11.528;2022-09-28T17:41:45;15.20;51.20
3868;DHT22;1949;48.152;11.528;2022-09-28T17:44:14;15.20;51.20
3868;DHT22;1949;48.152;11.528;2022-09-28T17:46:43;15.20;51.50
3868;DHT22;1949;48.152;11.528;2022-09-28T17:49:13;15.20;51.00
3868;DHT22;1949;48.152;11.528;2022-09-28T17:51:38;15.20;51.00
3868;DHT22;1949;48.152;11.528;2022-09-28T17:54:06;15.20;51.10
3868;DHT22;1949;48.152;11.528;2022-09-28T17:56:33;15.20;51.00
3868;DHT22;1949;48.152;11.528;2022-09-28T17:59:01;15.20;51.10
3868;DHT22;1949;48.152;11.528;2022-09-28T18:01:27;15.20;51.10
3868;DHT22;1949;48.152;11.528;2022-09-28T18:03:59;15.20;51.00
3868;DHT22;1949;48.152;11.528;2022-09-28T18:06:26;15.30;51.10
3868;DHT22;1949;48.152;11.528;2022-09-28T18:08:52;15.30;51.10
3868;DHT22;1949;48.152;11.528;2022-09-28T18:11:18;15.30;51.10
3868;DHT22;1949;48.152;11.528;2022-09-28T18:13:44;15.30;51.00
3868;DHT22;1949;48.152;11.528;2022-09-28T18:16:13;15.30;51.00
3868;DHT22;1949;48.152;11.528;2022-09-28T18:18:49;15.30;50.80
3868;DHT22;1949;48.152;11.528;2022-09-28T18:21:18;15.30;50.90
3868;DHT22;1949;48.152;11.528;2022-09-28T18:23:44;15.20;50.80
3868;DHT22;1949;48.152;11.528;2022-09-28T18:26:18;15.20;50.80
3868;DHT22;1949;48.152;11.528;2022-09-28T18:28:44;15.10;50.80
3868;DHT22;1949;48.152;11.528;2022-09-28T18:31:12;15.10;50.90
3868;DHT22;1949;48.152;11.528;2022-09-28T18:33:40;15.10;50.90
3868;DHT22;1949;48.152;11.528;2022-09-28T18:36:07;15.10;50.90
3868;DHT22;1949;48.152;11.528;2022-09-28T18:38:37;15.10;51.00
3868;DHT22;1949;48.152;11.528;2022-09-28T18:41:10;15.10;51.00
3868;DHT22;1949;48.152;11.528;2022-09-28T18:43:49;15.10;50.90
3868;DHT22;1949;48.152;11.528;2022-09-28T18:46:16;15.10;50.90
3868;DHT22;1949;48.152;11.528;2022-09-28T18:48:42;15.10;50.80
3868;DHT22;1949;48.152;11.528;2022-09-28T18:51:10;15.10;50.90
3868;DHT22;1949;48.152;11.528;2022-09-28T18:53:38;15.10;50.90
3868;DHT22;1949;48.152;11.528;2022-09-28T18:56:13;15.10;50.90
3868;DHT22;1949;48.152;11.528;2022-09-28T18:58:41;15.10;50.90
3868;DHT22;1949;48.152;11.528;2022-09-28T19:01:18;15.00;50.80
3868;DHT22;1949;48.152;11.528;2022-09-28T19:03:44;15.00;50.90
3868;DHT22;1949;48.152;11.528;2022-09-28T19:06:14;15.00;51.00
3868;DHT22;1949;48.152;11.528;2022-09-28T19:08:41;15.00;50.80
3868;DHT22;1949;48.152;11.528;2022-09-28T19:13:36;15.00;51.50
3868;DHT22;1949;48.152;11.528;2022-09-28T19:16:10;15.10;51.10
3868;DHT22;1949;48.152;11.528;2022-09-28T19:18:38;15.10;51.00
3868;DHT22;1949;48.152;11.528;2022-09-28T19:21:10;15.10;50.90
3868;DHT22;1949;48.152;11.528;2022-09-28T19:23:36;15.10;50.90
3868;DHT22;1949;48.152;11.528;2022-09-28T19:26:10;15.10;50.90
3868;DHT22;1949;48.152;11.528;2022-09-28T19:28:36;15.10;50.90
3868;DHT22;1949;48.152;11.528;2022-09-28T19:31:04;15.10;50.80
3868;DHT22;1949;48.152;11.528;2022-09-28T19:33:30;15.00;50.90
3868;DHT22;1949;48.152;11.528;2022-09-28T19:36:00;15.00;51.10
3868;DHT22;1949;48.152;11.528;2022-09-28T19:38:31;15.00;51.50
3868;DHT22;1949;48.152;11.528;2022-09-28T19:40:59;15.00;50.90